Buckskin Joe, Colorado
Current Conditions -  °F | °C
As of 2:15 PM on Tuesday 21 Oct 2014 (Local Time) from K1V6 Reporting Station
Scattered Clouds Scattered Clouds  
Wind Chill: 73°   Ceiling: Unl
Heat Index: 73°   Visibility: 10mi
Dew Point: 37°   Wind: 12mph
Humidity: 27%   Direction: 120°ESE
Pressure: 29.98"   Gusts: NA
Location:  38.533°N, 105.389°W
Report Text: K1V6 212015Z AUTO 12010KT 10SM SCT110 23/03 A2998 RMK AO2
Loading
Personal Weather Stations






























Interactive Weather Map
Tropical Storm Tracking
New forecast layout! Learn more

10-Day Weather Forecast

Advertisements
Track Severe Weather on mobile